sensor_id;sensor_type;location;lat;lon;timestamp;temperature;humidity
14188;DHT22;7175;51.978;5.330;2023-03-01T00:01:21;-0.20;99.90
14188;DHT22;7175;51.978;5.330;2023-03-01T00:03:49;-0.20;99.90
14188;DHT22;7175;51.978;5.330;2023-03-01T00:06:19;-0.20;99.90
14188;DHT22;7175;51.978;5.330;2023-03-01T00:08:47;-0.20;99.90
14188;DHT22;7175;51.978;5.330;2023-03-01T00:11:17;-0.20;99.90
14188;DHT22;7175;51.978;5.330;2023-03-01T00:13:47;-0.20;99.90
14188;DHT22;7175;51.978;5.330;2023-03-01T00:16:19;-0.30;99.90
14188;DHT22;7175;51.978;5.330;2023-03-01T00:18:48;-0.40;99.90
14188;DHT22;7175;51.978;5.330;2023-03-01T00:21:17;-0.30;99.90
14188;DHT22;7175;51.978;5.330;2023-03-01T00:23:47;-0.30;99.90
14188;DHT22;7175;51.978;5.330;2023-03-01T00:26:17;-0.40;99.90
14188;DHT22;7175;51.978;5.330;2023-03-01T00:28:46;-0.40;99.90
14188;DHT22;7175;51.978;5.330;2023-03-01T00:31:16;-0.30;99.90
14188;DHT22;7175;51.978;5.330;2023-03-01T00:33:46;-0.40;99.90
14188;DHT22;7175;51.978;5.330;2023-03-01T00:36:15;-0.40;99.90
14188;DHT22;7175;51.978;5.330;2023-03-01T00:38:44;-0.40;99.90
14188;DHT22;7175;51.978;5.330;2023-03-01T00:41:14;-0.40;99.90
14188;DHT22;7175;51.978;5.330;2023-03-01T00:43:43;-0.50;99.90
14188;DHT22;7175;51.978;5.330;2023-03-01T00:46:13;-0.50;99.90
14188;DHT22;7175;51.978;5.330;2023-03-01T00:48:42;-0.50;99.90
14188;DHT22;7175;51.978;5.330;2023-03-01T00:51:14;-0.60;99.90
14188;DHT22;7175;51.978;5.330;2023-03-01T00:53:42;-0.60;99.90
14188;DHT22;7175;51.978;5.330;2023-03-01T00:56:13;-0.60;99.90
14188;DHT22;7175;51.978;5.330;2023-03-01T00:58:42;-0.60;99.90
14188;DHT22;7175;51.978;5.330;2023-03-01T01:01:12;-0.60;99.90
14188;DHT22;7175;51.978;5.330;2023-03-01T01:03:46;-0.70;99.90
14188;DHT22;7175;51.978;5.330;2023-03-01T01:06:18;-0.70;99.90
14188;DHT22;7175;51.978;5.330;2023-03-01T01:08:48;-0.70;99.90
14188;DHT22;7175;51.978;5.330;2023-03-01T01:11:17;-0.70;99.90
14188;DHT22;7175;51.978;5.330;2023-03-01T01:13:46;-0.80;99.90
14188;DHT22;7175;51.978;5.330;2023-03-01T01:16:16;-0.80;99.90
14188;DHT22;7175;51.978;5.330;2023-03-01T01:18:45;-0.80;99.90
14188;DHT22;7175;51.978;5.330;2023-03-01T01:21:15;-0.80;99.90
14188;DHT22;7175;51.978;5.330;2023-03-01T01:23:45;-0.80;99.90
14188;DHT22;7175;51.978;5.330;2023-03-01T01:26:15;-0.90;99.90
14188;DHT22;7175;51.978;5.330;2023-03-01T01:28:44;-0.90;99.90
14188;DHT22;7175;51.978;5.330;2023-03-01T01:31:12;-0.90;99.90
14188;DHT22;7175;51.978;5.330;2023-03-01T01:33:41;-1.00;99.90
14188;DHT22;7175;51.978;5.330;2023-03-01T01:36:09;-1.00;99.90
14188;DHT22;7175;51.978;5.330;2023-03-01T01:38:38;-1.10;99.90
14188;DHT22;7175;51.978;5.330;2023-03-01T01:41:07;-1.10;99.90
14188;DHT22;7175;51.978;5.330;2023-03-01T01:43:40;-1.10;99.90
14188;DHT22;7175;51.978;5.330;2023-03-01T01:46:16;-1.10;99.90
14188;DHT22;7175;51.978;5.330;2023-03-01T01:48:49;-1.10;99.90
14188;DHT22;7175;51.978;5.330;2023-03-01T01:51:19;-1.10;99.90
14188;DHT22;7175;51.978;5.330;2023-03-01T01:53:55;-1.10;99.90
14188;DHT22;7175;51.978;5.330;2023-03-01T01:56:26;-1.10;99.90
14188;DHT22;7175;51.978;5.330;2023-03-01T01:58:57;-1.10;99.90
14188;DHT22;7175;51.978;5.330;2023-03-01T02:01:25;-1.10;99.90
14188;DHT22;7175;51.978;5.330;2023-03-01T02:03:53;-1.10;99.90
14188;DHT22;7175;51.978;5.330;2023-03-01T02:06:26;-1.10;99.90
14188;DHT22;7175;51.978;5.330;2023-03-01T02:08:59;-1.10;99.90
14188;DHT22;7175;51.978;5.330;2023-03-01T02:11:29;-1.10;99.90
14188;DHT22;7175;51.978;5.330;2023-03-01T02:13:58;-1.20;99.90
14188;DHT22;7175;51.978;5.330;2023-03-01T02:16:26;-1.20;99.90
14188;DHT22;7175;51.978;5.330;2023-03-01T02:18:57;-1.20;99.90
14188;DHT22;7175;51.978;5.330;2023-03-01T02:21:38;-1.20;99.90
14188;DHT22;7175;51.978;5.330;2023-03-01T02:24:17;-1.20;99.90
14188;DHT22;7175;51.978;5.330;2023-03-01T02:26:51;-1.20;99.90
14188;DHT22;7175;51.978;5.330;2023-03-01T02:29:21;-1.20;99.90
14188;DHT22;7175;51.978;5.330;2023-03-01T02:31:51;-1.30;99.90
14188;DHT22;7175;51.978;5.330;2023-03-01T02:34:22;-1.30;99.90
14188;DHT22;7175;51.978;5.330;2023-03-01T02:36:55;-1.30;99.90
14188;DHT22;7175;51.978;5.330;2023-03-01T02:39:26;-1.40;99.90
14188;DHT22;7175;51.978;5.330;2023-03-01T02:41:56;-1.40;99.90
14188;DHT22;7175;51.978;5.330;2023-03-01T02:44:25;-1.30;99.90
14188;DHT22;7175;51.978;5.330;2023-03-01T02:46:56;-1.30;99.90
14188;DHT22;7175;51.978;5.330;2023-03-01T02:49:27;-1.40;99.90
14188;DHT22;7175;51.978;5.330;2023-03-01T02:52:16;-1.40;99.90
14188;DHT22;7175;51.978;5.330;2023-03-01T02:54:48;-1.30;99.90
14188;DHT22;7175;51.978;5.330;2023-03-01T02:57:19;-1.40;99.90
14188;DHT22;7175;51.978;5.330;2023-03-01T02:59:50;-1.40;99.90
14188;DHT22;7175;51.978;5.330;2023-03-01T03:02:20;-1.40;99.90
14188;DHT22;7175;51.978;5.330;2023-03-01T03:05:05;-1.40;99.90
14188;DHT22;7175;51.978;5.330;2023-03-01T03:07:37;-1.40;99.90
14188;DHT22;7175;51.978;5.330;2023-03-01T03:10:08;-1.50;99.90
14188;DHT22;7175;51.978;5.330;2023-03-01T03:12:38;-1.50;99.90
14188;DHT22;7175;51.978;5.330;2023-03-01T03:15:09;-1.50;99.90
14188;DHT22;7175;51.978;5.330;2023-03-01T03:17:41;-1.40;99.90
14188;DHT22;7175;51.978;5.330;2023-03-01T03:20:14;-1.40;99.90
14188;DHT22;7175;51.978;5.330;2023-03-01T03:23:03;-1.40;99.90
14188;DHT22;7175;51.978;5.330;2023-03-01T03:25:31;-1.40;99.90
14188;DHT22;7175;51.978;5.330;2023-03-01T03:27:59;-1.40;99.90
14188;DHT22;7175;51.978;5.330;2023-03-01T03:30:30;-1.40;99.90
14188;DHT22;7175;51.978;5.330;2023-03-01T03:32:59;-1.40;99.90
14188;DHT22;7175;51.978;5.330;2023-03-01T03:35:29;-1.30;99.90
14188;DHT22;7175;51.978;5.330;2023-03-01T03:37:59;-1.30;99.90
14188;DHT22;7175;51.978;5.330;2023-03-01T03:40:33;-1.40;99.90
14188;DHT22;7175;51.978;5.330;2023-03-01T03:43:02;-1.30;99.90
14188;DHT22;7175;51.978;5.330;2023-03-01T03:45:32;-1.30;99.90
14188;DHT22;7175;51.978;5.330;2023-03-01T03:48:00;-1.40;99.90
14188;DHT22;7175;51.978;5.330;2023-03-01T03:50:29;-1.40;99.90
14188;DHT22;7175;51.978;5.330;2023-03-01T03:52:57;-1.40;99.90
14188;DHT22;7175;51.978;5.330;2023-03-01T03:55:27;-1.40;99.90
14188;DHT22;7175;51.978;5.330;2023-03-01T03:57:58;-1.40;99.90
14188;DHT22;7175;51.978;5.330;2023-03-01T04:00:28;-1.40;99.90
14188;DHT22;7175;51.978;5.330;2023-03-01T04:02:58;-1.40;99.90
14188;DHT22;7175;51.978;5.330;2023-03-01T04:05:28;-1.40;99.90
14188;DHT22;7175;51.978;5.330;2023-03-01T04:07:56;-1.50;99.90
14188;DHT22;7175;51.978;5.330;2023-03-01T04:10:36;-1.50;99.90
14188;DHT22;7175;51.978;5.330;2023-03-01T04:13:06;-1.60;99.90
14188;DHT22;7175;51.978;5.330;2023-03-01T04:15:34;-1.60;99.90
14188;DHT22;7175;51.978;5.330;2023-03-01T04:18:04;-1.60;99.90
14188;DHT22;7175;51.978;5.330;2023-03-01T04:20:34;-1.60;99.90
14188;DHT22;7175;51.978;5.330;2023-03-01T04:23:05;-1.70;99.90
14188;DHT22;7175;51.978;5.330;2023-03-01T04:25:41;-1.70;99.90
14188;DHT22;7175;51.978;5.330;2023-03-01T04:28:09;-1.60;99.90
14188;DHT22;7175;51.978;5.330;2023-03-01T04:30:38;-1.70;99.90
14188;DHT22;7175;51.978;5.330;2023-03-01T04:33:10;-1.70;99.90
14188;DHT22;7175;51.978;5.330;2023-03-01T04:35:39;-1.80;99.90
14188;DHT22;7175;51.978;5.330;2023-03-01T04:38:08;-1.80;99.90
14188;DHT22;7175;51.978;5.330;2023-03-01T04:40:36;-1.80;99.90
14188;DHT22;7175;51.978;5.330;2023-03-01T04:43:05;-1.80;99.90
14188;DHT22;7175;51.978;5.330;2023-03-01T04:45:33;-1.90;99.90
14188;DHT22;7175;51.978;5.330;2023-03-01T04:48:03;-1.80;99.90
14188;DHT22;7175;51.978;5.330;2023-03-01T04:50:33;-1.80;99.90
14188;DHT22;7175;51.978;5.330;2023-03-01T04:53:01;-1.80;99.90
14188;DHT22;7175;51.978;5.330;2023-03-01T04:55:30;-1.80;99.90
14188;DHT22;7175;51.978;5.330;2023-03-01T04:57:58;-1.90;99.90
14188;DHT22;7175;51.978;5.330;2023-03-01T05:00:26;-1.90;99.90
14188;DHT22;7175;51.978;5.330;2023-03-01T05:02:56;-1.90;99.90
14188;DHT22;7175;51.978;5.330;2023-03-01T05:05:27;-1.90;99.90
14188;DHT22;7175;51.978;5.330;2023-03-01T05:07:58;-2.00;99.90
14188;DHT22;7175;51.978;5.330;2023-03-01T05:10:28;-1.90;99.90
14188;DHT22;7175;51.978;5.330;2023-03-01T05:13:00;-2.00;99.90
14188;DHT22;7175;51.978;5.330;2023-03-01T05:15:30;-2.10;99.90
14188;DHT22;7175;51.978;5.330;2023-03-01T05:17:59;-2.00;99.90
14188;DHT22;7175;51.978;5.330;2023-03-01T05:20:28;-2.00;99.90
14188;DHT22;7175;51.978;5.330;2023-03-01T05:22:59;-2.10;99.90
14188;DHT22;7175;51.978;5.330;2023-03-01T05:25:33;-2.10;99.90
14188;DHT22;7175;51.978;5.330;2023-03-01T05:28:11;-2.10;99.90
14188;DHT22;7175;51.978;5.330;2023-03-01T05:30:39;-2.10;99.90
14188;DHT22;7175;51.978;5.330;2023-03-01T05:33:08;-2.10;99.90
14188;DHT22;7175;51.978;5.330;2023-03-01T05:35:40;-2.10;99.90
14188;DHT22;7175;51.978;5.330;2023-03-01T05:38:11;-2.10;99.90
14188;DHT22;7175;51.978;5.330;2023-03-01T05:40:40;-2.10;99.90
14188;DHT22;7175;51.978;5.330;2023-03-01T05:43:10;-2.10;99.90
14188;DHT22;7175;51.978;5.330;2023-03-01T05:45:39;-2.10;99.90
14188;DHT22;7175;51.978;5.330;2023-03-01T05:48:10;-2.10;99.90
14188;DHT22;7175;51.978;5.330;2023-03-01T05:50:40;-2.10;99.90
14188;DHT22;7175;51.978;5.330;2023-03-01T05:53:12;-2.10;99.90
14188;DHT22;7175;51.978;5.330;2023-03-01T05:55:41;-2.10;99.90
14188;DHT22;7175;51.978;5.330;2023-03-01T05:58:12;-2.10;99.90
14188;DHT22;7175;51.978;5.330;2023-03-01T06:00:41;-2.10;99.90
14188;DHT22;7175;51.978;5.330;2023-03-01T06:03:10;-2.20;99.90
14188;DHT22;7175;51.978;5.330;2023-03-01T06:05:39;-2.20;99.90
14188;DHT22;7175;51.978;5.330;2023-03-01T06:08:09;-2.20;99.90
14188;DHT22;7175;51.978;5.330;2023-03-01T06:10:37;-2.10;99.90
14188;DHT22;7175;51.978;5.330;2023-03-01T06:13:06;-2.10;99.90
14188;DHT22;7175;51.978;5.330;2023-03-01T06:15:34;-2.10;99.90
14188;DHT22;7175;51.978;5.330;2023-03-01T06:18:02;-2.10;99.90
14188;DHT22;7175;51.978;5.330;2023-03-01T06:20:31;-2.10;99.90
14188;DHT22;7175;51.978;5.330;2023-03-01T06:22:59;-2.10;99.90
14188;DHT22;7175;51.978;5.330;2023-03-01T06:25:29;-2.10;99.90
14188;DHT22;7175;51.978;5.330;2023-03-01T06:27:57;-2.10;99.90
14188;DHT22;7175;51.978;5.330;2023-03-01T06:30:26;-2.00;99.90
14188;DHT22;7175;51.978;5.330;2023-03-01T06:32:54;-2.00;99.90
14188;DHT22;7175;51.978;5.330;2023-03-01T06:35:29;-2.00;99.90
14188;DHT22;7175;51.978;5.330;2023-03-01T06:37:59;-2.00;99.90
14188;DHT22;7175;51.978;5.330;2023-03-01T06:40:28;-2.10;99.90
14188;DHT22;7175;51.978;5.330;2023-03-01T06:42:58;-2.20;99.90
14188;DHT22;7175;51.978;5.330;2023-03-01T06:45:27;-2.20;99.90
14188;DHT22;7175;51.978;5.330;2023-03-01T06:48:02;-2.20;99.90
14188;DHT22;7175;51.978;5.330;2023-03-01T06:50:32;-2.30;99.90
14188;DHT22;7175;51.978;5.330;2023-03-01T06:53:00;-2.10;99.90
14188;DHT22;7175;51.978;5.330;2023-03-01T06:55:30;-2.20;99.90
14188;DHT22;7175;51.978;5.330;2023-03-01T06:57:59;-2.20;99.90
14188;DHT22;7175;51.978;5.330;2023-03-01T07:00:28;-2.20;99.90
14188;DHT22;7175;51.978;5.330;2023-03-01T07:02:58;-2.10;99.90
14188;DHT22;7175;51.978;5.330;2023-03-01T07:05:27;-2.10;99.90
14188;DHT22;7175;51.978;5.330;2023-03-01T07:07:56;-2.00;99.90
14188;DHT22;7175;51.978;5.330;2023-03-01T07:10:24;-2.00;99.90
14188;DHT22;7175;51.978;5.330;2023-03-01T07:12:56;-1.90;99.90
14188;DHT22;7175;51.978;5.330;2023-03-01T07:15:24;-1.70;99.90
14188;DHT22;7175;51.978;5.330;2023-03-01T07:17:53;-1.70;99.90
14188;DHT22;7175;51.978;5.330;2023-03-01T07:20:21;-1.70;99.90
14188;DHT22;7175;51.978;5.330;2023-03-01T07:22:51;-1.50;99.90
14188;DHT22;7175;51.978;5.330;2023-03-01T07:25:19;-1.40;99.90
14188;DHT22;7175;51.978;5.330;2023-03-01T07:27:49;-1.30;99.90
14188;DHT22;7175;51.978;5.330;2023-03-01T07:30:20;-1.20;99.90
14188;DHT22;7175;51.978;5.330;2023-03-01T07:32:48;-1.00;99.90
14188;DHT22;7175;51.978;5.330;2023-03-01T07:35:16;-1.00;99.90
14188;DHT22;7175;51.978;5.330;2023-03-01T07:37:44;-0.90;99.90
14188;DHT22;7175;51.978;5.330;2023-03-01T07:40:13;-0.80;99.90
14188;DHT22;7175;51.978;5.330;2023-03-01T07:42:41;-0.60;99.90
14188;DHT22;7175;51.978;5.330;2023-03-01T07:45:10;-0.50;99.90
14188;DHT22;7175;51.978;5.330;2023-03-01T07:47:40;-0.50;99.90
14188;DHT22;7175;51.978;5.330;2023-03-01T07:50:09;-0.30;99.90
14188;DHT22;7175;51.978;5.330;2023-03-01T07:52:38;-0.20;99.90
14188;DHT22;7175;51.978;5.330;2023-03-01T07:55:07;-0.10;99.90
14188;DHT22;7175;51.978;5.330;2023-03-01T07:57:35;0.10;99.90
14188;DHT22;7175;51.978;5.330;2023-03-01T08:00:04;0.30;99.90
14188;DHT22;7175;51.978;5.330;2023-03-01T08:02:32;0.40;99.90
14188;DHT22;7175;51.978;5.330;2023-03-01T08:05:03;0.50;99.90
14188;DHT22;7175;51.978;5.330;2023-03-01T08:07:32;0.70;99.90
14188;DHT22;7175;51.978;5.330;2023-03-01T08:10:00;0.80;99.90
14188;DHT22;7175;51.978;5.330;2023-03-01T08:12:29;1.10;99.90
14188;DHT22;7175;51.978;5.330;2023-03-01T08:14:57;1.40;99.90
14188;DHT22;7175;51.978;5.330;2023-03-01T08:17:25;1.60;99.90
14188;DHT22;7175;51.978;5.330;2023-03-01T08:19:54;1.70;99.90
14188;DHT22;7175;51.978;5.330;2023-03-01T08:22:24;1.90;99.90
14188;DHT22;7175;51.978;5.330;2023-03-01T08:24:52;1.90;99.90
14188;DHT22;7175;51.978;5.330;2023-03-01T08:27:22;2.00;99.90
14188;DHT22;7175;51.978;5.330;2023-03-01T08:29:51;2.30;99.90
14188;DHT22;7175;51.978;5.330;2023-03-01T08:32:19;2.30;99.90
14188;DHT22;7175;51.978;5.330;2023-03-01T08:34:48;2.50;99.90
14188;DHT22;7175;51.978;5.330;2023-03-01T08:37:16;2.60;99.90
14188;DHT22;7175;51.978;5.330;2023-03-01T08:39:46;2.70;99.90
14188;DHT22;7175;51.978;5.330;2023-03-01T08:42:14;2.90;99.90
14188;DHT22;7175;51.978;5.330;2023-03-01T08:44:42;3.00;99.90
14188;DHT22;7175;51.978;5.330;2023-03-01T08:47:12;3.10;99.90
14188;DHT22;7175;51.978;5.330;2023-03-01T08:49:41;3.20;99.90
14188;DHT22;7175;51.978;5.330;2023-03-01T08:52:09;3.20;99.90
14188;DHT22;7175;51.978;5.330;2023-03-01T08:54:37;3.40;99.90
14188;DHT22;7175;51.978;5.330;2023-03-01T08:57:07;3.50;99.90
14188;DHT22;7175;51.978;5.330;2023-03-01T08:59:36;3.60;99.90
14188;DHT22;7175;51.978;5.330;2023-03-01T09:02:05;3.70;99.90
14188;DHT22;7175;51.978;5.330;2023-03-01T09:04:34;3.90;99.90
14188;DHT22;7175;51.978;5.330;2023-03-01T09:07:02;3.90;99.90
14188;DHT22;7175;51.978;5.330;2023-03-01T09:09:31;4.00;99.90
14188;DHT22;7175;51.978;5.330;2023-03-01T09:11:59;4.00;99.90
14188;DHT22;7175;51.978;5.330;2023-03-01T09:14:28;4.20;99.90
14188;DHT22;7175;51.978;5.330;2023-03-01T09:16:56;4.50;99.90
14188;DHT22;7175;51.978;5.330;2023-03-01T09:19:25;4.40;99.90
14188;DHT22;7175;51.978;5.330;2023-03-01T09:21:53;4.50;99.90
14188;DHT22;7175;51.978;5.330;2023-03-01T09:24:23;4.70;99.90
14188;DHT22;7175;51.978;5.330;2023-03-01T09:26:54;4.60;99.90
14188;DHT22;7175;51.978;5.330;2023-03-01T09:29:23;4.70;99.90
14188;DHT22;7175;51.978;5.330;2023-03-01T09:31:54;4.90;99.90
14188;DHT22;7175;51.978;5.330;2023-03-01T09:34:23;4.90;99.90
14188;DHT22;7175;51.978;5.330;2023-03-01T09:39:20;5.20;99.90
14188;DHT22;7175;51.978;5.330;2023-03-01T09:41:53;5.10;99.90
14188;DHT22;7175;51.978;5.330;2023-03-01T09:44:30;5.20;99.90
14188;DHT22;7175;51.978;5.330;2023-03-01T09:47:01;5.40;99.90
14188;DHT22;7175;51.978;5.330;2023-03-01T09:49:31;5.30;99.90
14188;DHT22;7175;51.978;5.330;2023-03-01T09:52:03;5.30;99.90
14188;DHT22;7175;51.978;5.330;2023-03-01T09:54:37;5.30;99.90
14188;DHT22;7175;51.978;5.330;2023-03-01T09:57:14;5.40;99.90
14188;DHT22;7175;51.978;5.330;2023-03-01T09:59:55;5.30;99.90
14188;DHT22;7175;51.978;5.330;2023-03-01T10:02:36;5.50;99.90
14188;DHT22;7175;51.978;5.330;2023-03-01T10:05:19;5.70;99.90
14188;DHT22;7175;51.978;5.330;2023-03-01T10:07:58;5.70;99.90
14188;DHT22;7175;51.978;5.330;2023-03-01T10:10:32;5.80;99.90
14188;DHT22;7175;51.978;5.330;2023-03-01T10:13:15;5.80;99.90
14188;DHT22;7175;51.978;5.330;2023-03-01T10:15:48;6.00;99.90
14188;DHT22;7175;51.978;5.330;2023-03-01T10:18:26;6.20;99.90
14188;DHT22;7175;51.978;5.330;2023-03-01T10:20:57;6.20;99.90
14188;DHT22;7175;51.978;5.330;2023-03-01T10:23:28;6.20;99.90
14188;DHT22;7175;51.978;5.330;2023-03-01T10:26:12;6.50;99.90
14188;DHT22;7175;51.978;5.330;2023-03-01T10:28:47;6.60;99.90
14188;DHT22;7175;51.978;5.330;2023-03-01T10:31:21;6.60;99.90
14188;DHT22;7175;51.978;5.330;2023-03-01T10:33:55;6.80;99.90
14188;DHT22;7175;51.978;5.330;2023-03-01T10:36:24;6.90;99.90
14188;DHT22;7175;51.978;5.330;2023-03-01T10:38:53;6.70;99.90
14188;DHT22;7175;51.978;5.330;2023-03-01T10:41:25;6.50;99.90
14188;DHT22;7175;51.978;5.330;2023-03-01T10:43:55;6.90;99.90
14188;DHT22;7175;51.978;5.330;2023-03-01T10:46:26;7.10;99.90
14188;DHT22;7175;51.978;5.330;2023-03-01T10:49:14;7.00;99.90
14188;DHT22;7175;51.978;5.330;2023-03-01T10:51:44;6.90;99.90
14188;DHT22;7175;51.978;5.330;2023-03-01T10:54:18;7.10;99.90
14188;DHT22;7175;51.978;5.330;2023-03-01T10:56:49;6.90;99.90
14188;DHT22;7175;51.978;5.330;2023-03-01T10:59:26;6.90;99.90
14188;DHT22;7175;51.978;5.330;2023-03-01T11:02:16;7.40;99.90
14188;DHT22;7175;51.978;5.330;2023-03-01T11:05:01;7.60;99.90
14188;DHT22;7175;51.978;5.330;2023-03-01T11:07:29;7.50;99.90
14188;DHT22;7175;51.978;5.330;2023-03-01T11:09:57;7.60;99.90
14188;DHT22;7175;51.978;5.330;2023-03-01T11:12:25;7.60;99.90
14188;DHT22;7175;51.978;5.330;2023-03-01T11:14:57;7.90;99.90
14188;DHT22;7175;51.978;5.330;2023-03-01T11:17:28;8.00;99.90
14188;DHT22;7175;51.978;5.330;2023-03-01T11:20:15;7.90;99.90
14188;DHT22;7175;51.978;5.330;2023-03-01T11:22:48;7.90;99.90
14188;DHT22;7175;51.978;5.330;2023-03-01T11:25:18;7.70;99.90
14188;DHT22;7175;51.978;5.330;2023-03-01T11:27:48;7.80;99.90
14188;DHT22;7175;51.978;5.330;2023-03-01T11:30:19;7.70;99.90
14188;DHT22;7175;51.978;5.330;2023-03-01T11:32:57;8.10;99.90
14188;DHT22;7175;51.978;5.330;2023-03-01T11:35:29;8.40;99.90
14188;DHT22;7175;51.978;5.330;2023-03-01T11:38:09;8.80;99.90
14188;DHT22;7175;51.978;5.330;2023-03-01T11:40:46;8.60;99.90
14188;DHT22;7175;51.978;5.330;2023-03-01T11:43:20;8.60;99.90
14188;DHT22;7175;51.978;5.330;2023-03-01T11:48:51;8.50;99.90
14188;DHT22;7175;51.978;5.330;2023-03-01T11:51:37;8.30;99.90
14188;DHT22;7175;51.978;5.330;2023-03-01T11:54:17;8.30;99.90
14188;DHT22;7175;51.978;5.330;2023-03-01T11:56:48;8.50;99.90
14188;DHT22;7175;51.978;5.330;2023-03-01T11:59:39;8.90;99.90
14188;DHT22;7175;51.978;5.330;2023-03-01T12:05:24;8.80;99.90
14188;DHT22;7175;51.978;5.330;2023-03-01T12:07:59;9.30;99.90
14188;DHT22;7175;51.978;5.330;2023-03-01T12:10:32;8.70;99.90
14188;DHT22;7175;51.978;5.330;2023-03-01T12:16:19;8.60;99.90
14188;DHT22;7175;51.978;5.330;2023-03-01T12:19:20;8.90;99.90
14188;DHT22;7175;51.978;5.330;2023-03-01T12:22:01;9.30;99.90
14188;DHT22;7175;51.978;5.330;2023-03-01T12:30:46;8.80;99.90
14188;DHT22;7175;51.978;5.330;2023-03-01T12:33:25;9.00;99.90
14188;DHT22;7175;51.978;5.330;2023-03-01T12:36:20;9.40;99.90
14188;DHT22;7175;51.978;5.330;2023-03-01T12:38:59;9.00;99.90
14188;DHT22;7175;51.978;5.330;2023-03-01T12:41:42;9.20;99.90
14188;DHT22;7175;51.978;5.330;2023-03-01T12:47:11;9.50;99.90
14188;DHT22;7175;51.978;5.330;2023-03-01T12:49:44;9.20;99.90
14188;DHT22;7175;51.978;5.330;2023-03-01T12:52:19;9.00;99.70
14188;DHT22;7175;51.978;5.330;2023-03-01T12:54:51;9.70;99.90
14188;DHT22;7175;51.978;5.330;2023-03-01T12:57:28;9.60;98.80
14188;DHT22;7175;51.978;5.330;2023-03-01T13:00:17;9.50;97.00
14188;DHT22;7175;51.978;5.330;2023-03-01T13:02:51;9.50;96.80
14188;DHT22;7175;51.978;5.330;2023-03-01T13:05:33;9.70;96.20
14188;DHT22;7175;51.978;5.330;2023-03-01T13:08:07;9.10;94.40
14188;DHT22;7175;51.978;5.330;2023-03-01T13:10:43;9.30;94.10
14188;DHT22;7175;51.978;5.330;2023-03-01T13:13:21;9.20;92.30
14188;DHT22;7175;51.978;5.330;2023-03-01T13:15:50;9.10;93.30
14188;DHT22;7175;51.978;5.330;2023-03-01T13:18:30;9.10;92.20
14188;DHT22;7175;51.978;5.330;2023-03-01T13:21:01;9.30;91.40
14188;DHT22;7175;51.978;5.330;2023-03-01T13:23:33;9.40;91.90
14188;DHT22;7175;51.978;5.330;2023-03-01T13:26:17;9.60;91.20
14188;DHT22;7175;51.978;5.330;2023-03-01T13:28:56;9.40;88.80
14188;DHT22;7175;51.978;5.330;2023-03-01T13:31:58;9.30;88.70
14188;DHT22;7175;51.978;5.330;2023-03-01T13:34:48;9.60;86.20
14188;DHT22;7175;51.978;5.330;2023-03-01T13:37:25;9.70;86.90
14188;DHT22;7175;51.978;5.330;2023-03-01T13:39:57;9.50;84.50
14188;DHT22;7175;51.978;5.330;2023-03-01T13:42:37;9.40;84.00
14188;DHT22;7175;51.978;5.330;2023-03-01T13:45:19;9.40;84.30
14188;DHT22;7175;51.978;5.330;2023-03-01T13:47:52;9.70;90.00
14188;DHT22;7175;51.978;5.330;2023-03-01T13:50:24;9.20;83.50
14188;DHT22;7175;51.978;5.330;2023-03-01T13:52:56;9.60;83.90
14188;DHT22;7175;51.978;5.330;2023-03-01T13:55:32;9.50;82.00
14188;DHT22;7175;51.978;5.330;2023-03-01T13:58:05;9.40;84.50
14188;DHT22;7175;51.978;5.330;2023-03-01T14:00:43;9.60;86.30
14188;DHT22;7175;51.978;5.330;2023-03-01T14:03:14;9.60;83.30
14188;DHT22;7175;51.978;5.330;2023-03-01T14:05:44;9.70;86.40
14188;DHT22;7175;51.978;5.330;2023-03-01T14:08:39;9.60;82.00
14188;DHT22;7175;51.978;5.330;2023-03-01T14:14:28;9.40;80.70
14188;DHT22;7175;51.978;5.330;2023-03-01T14:17:11;9.00;79.70
14188;DHT22;7175;51.978;5.330;2023-03-01T14:19:43;9.10;79.60
14188;DHT22;7175;51.978;5.330;2023-03-01T14:22:17;8.70;80.00
14188;DHT22;7175;51.978;5.330;2023-03-01T14:24:50;8.60;79.30
14188;DHT22;7175;51.978;5.330;2023-03-01T14:27:18;8.50;79.70
14188;DHT22;7175;51.978;5.330;2023-03-01T14:29:55;8.40;80.00
14188;DHT22;7175;51.978;5.330;2023-03-01T14:32:27;8.60;83.90
14188;DHT22;7175;51.978;5.330;2023-03-01T14:34:56;8.80;83.80
14188;DHT22;7175;51.978;5.330;2023-03-01T14:37:28;8.80;81.30
14188;DHT22;7175;51.978;5.330;2023-03-01T14:39:58;8.40;79.80
14188;DHT22;7175;51.978;5.330;2023-03-01T14:42:29;8.50;82.60
14188;DHT22;7175;51.978;5.330;2023-03-01T14:45:00;8.40;79.80
14188;DHT22;7175;51.978;5.330;2023-03-01T14:47:32;8.50;80.00
14188;DHT22;7175;51.978;5.330;2023-03-01T14:50:03;8.40;79.20
14188;DHT22;7175;51.978;5.330;2023-03-01T14:52:35;8.30;79.70
14188;DHT22;7175;51.978;5.330;2023-03-01T14:55:05;8.20;80.40
14188;DHT22;7175;51.978;5.330;2023-03-01T14:57:34;8.30;81.40
14188;DHT22;7175;51.978;5.330;2023-03-01T15:00:08;8.20;80.50
14188;DHT22;7175;51.978;5.330;2023-03-01T15:02:37;8.10;78.80
14188;DHT22;7175;51.978;5.330;2023-03-01T15:05:08;8.00;80.10
14188;DHT22;7175;51.978;5.330;2023-03-01T15:07:40;8.00;78.60
14188;DHT22;7175;51.978;5.330;2023-03-01T15:10:17;8.00;78.30
14188;DHT22;7175;51.978;5.330;2023-03-01T15:12:47;8.10;79.50
14188;DHT22;7175;51.978;5.330;2023-03-01T15:15:37;8.10;80.80
14188;DHT22;7175;51.978;5.330;2023-03-01T15:18:16;8.10;78.40
14188;DHT22;7175;51.978;5.330;2023-03-01T15:20:45;8.00;80.00
14188;DHT22;7175;51.978;5.330;2023-03-01T15:23:20;8.00;79.60
14188;DHT22;7175;51.978;5.330;2023-03-01T15:25:50;7.90;79.20
14188;DHT22;7175;51.978;5.330;2023-03-01T15:28:25;7.80;78.80
14188;DHT22;7175;51.978;5.330;2023-03-01T15:30:57;7.90;79.90
14188;DHT22;7175;51.978;5.330;2023-03-01T15:33:36;7.80;81.10
14188;DHT22;7175;51.978;5.330;2023-03-01T15:36:29;7.90;80.90
14188;DHT22;7175;51.978;5.330;2023-03-01T15:38:58;7.90;81.40
14188;DHT22;7175;51.978;5.330;2023-03-01T15:41:29;7.80;80.00
14188;DHT22;7175;51.978;5.330;2023-03-01T15:43:59;7.80;80.80
14188;DHT22;7175;51.978;5.330;2023-03-01T15:46:31;7.80;81.00
14188;DHT22;7175;51.978;5.330;2023-03-01T15:49:05;7.80;81.00
14188;DHT22;7175;51.978;5.330;2023-03-01T15:51:45;7.80;80.90
14188;DHT22;7175;51.978;5.330;2023-03-01T15:54:17;7.80;82.80
14188;DHT22;7175;51.978;5.330;2023-03-01T15:56:46;7.80;83.10
14188;DHT22;7175;51.978;5.330;2023-03-01T15:59:14;7.80;82.20
14188;DHT22;7175;51.978;5.330;2023-03-01T16:01:44;7.80;82.10
14188;DHT22;7175;51.978;5.330;2023-03-01T16:04:18;7.80;83.00
14188;DHT22;7175;51.978;5.330;2023-03-01T16:06:51;7.70;82.40
14188;DHT22;7175;51.978;5.330;2023-03-01T16:09:22;7.60;82.20
14188;DHT22;7175;51.978;5.330;2023-03-01T16:11:53;7.60;81.50
14188;DHT22;7175;51.978;5.330;2023-03-01T16:14:21;7.60;81.40
14188;DHT22;7175;51.978;5.330;2023-03-01T16:16:49;7.60;82.30
14188;DHT22;7175;51.978;5.330;2023-03-01T16:19:19;7.60;85.00
14188;DHT22;7175;51.978;5.330;2023-03-01T16:21:47;7.50;84.80
14188;DHT22;7175;51.978;5.330;2023-03-01T16:24:16;7.50;83.60
14188;DHT22;7175;51.978;5.330;2023-03-01T16:26:44;7.50;84.30
14188;DHT22;7175;51.978;5.330;2023-03-01T16:29:13;7.40;79.80
14188;DHT22;7175;51.978;5.330;2023-03-01T16:31:42;7.40;79.60
14188;DHT22;7175;51.978;5.330;2023-03-01T16:34:11;7.30;80.30
14188;DHT22;7175;51.978;5.330;2023-03-01T16:36:42;7.30;81.90
14188;DHT22;7175;51.978;5.330;2023-03-01T16:39:10;7.10;83.50
14188;DHT22;7175;51.978;5.330;2023-03-01T16:41:38;7.10;82.70
14188;DHT22;7175;51.978;5.330;2023-03-01T16:44:07;7.10;83.00
14188;DHT22;7175;51.978;5.330;2023-03-01T16:46:35;7.10;83.80
14188;DHT22;7175;51.978;5.330;2023-03-01T16:49:03;6.90;84.90